createdAt,value
2022-08-25T00:02:13.487Z,2.20
2022-08-25T00:04:40.477Z,2.78
2022-08-25T00:07:09.253Z,2.42
2022-08-25T00:09:36.086Z,2.30
2022-08-25T00:12:05.237Z,3.17
2022-08-25T00:14:35.317Z,2.72
2022-08-25T00:17:02.762Z,2.40
2022-08-25T00:19:35.030Z,2.45
2022-08-25T00:22:03.035Z,2.60
2022-08-25T00:24:29.869Z,2.25
2022-08-25T00:26:58.181Z,2.70
2022-08-25T00:29:26.567Z,2.70
2022-08-25T00:31:55.097Z,2.72
2022-08-25T00:34:26.742Z,2.35
2022-08-25T00:36:53.746Z,2.53
2022-08-25T00:39:22.850Z,2.70
2022-08-25T00:41:51.554Z,2.83
2022-08-25T00:44:18.957Z,3.03
2022-08-25T00:46:55.087Z,2.42
2022-08-25T00:49:26.208Z,2.88
2022-08-25T00:52:09.259Z,2.90
2022-08-25T00:54:49.747Z,2.80
2022-08-25T00:57:33.916Z,3.05
2022-08-25T01:00:05.065Z,2.92
2022-08-25T01:02:31.750Z,2.78
2022-08-25T01:04:58.900Z,2.58
2022-08-25T01:07:25.555Z,2.60
2022-08-25T01:09:53.431Z,2.95
2022-08-25T01:12:20.622Z,2.90
2022-08-25T01:14:48.769Z,3.08
2022-08-25T01:17:17.090Z,3.00
2022-08-25T01:19:44.157Z,2.88
2022-08-25T01:22:12.150Z,2.92
2022-08-25T01:24:44.816Z,2.92
2022-08-25T01:27:12.127Z,2.97
2022-08-25T01:29:39.284Z,2.88
2022-08-25T01:32:09.357Z,2.90
2022-08-25T01:34:41.255Z,3.25
2022-08-25T01:37:08.796Z,2.88
2022-08-25T01:39:39.895Z,3.10
2022-08-25T01:42:12.272Z,3.00
2022-08-25T01:44:42.533Z,2.78
2022-08-25T01:47:09.933Z,2.80
2022-08-25T01:49:37.026Z,2.65
2022-08-25T01:52:13.308Z,2.78
2022-08-25T01:54:39.860Z,2.80
2022-08-25T01:57:06.834Z,2.40
2022-08-25T01:59:33.524Z,2.60
2022-08-25T02:02:00.382Z,2.80
2022-08-25T02:04:32.239Z,2.40
2022-08-25T02:07:01.170Z,2.38
2022-08-25T02:09:28.163Z,2.40
2022-08-25T02:11:55.241Z,3.10
2022-08-25T02:14:21.959Z,2.90
2022-08-25T02:16:51.080Z,4.00
2022-08-25T02:19:19.732Z,2.80
2022-08-25T02:21:47.243Z,3.03
2022-08-25T02:24:14.458Z,2.88
2022-08-25T02:26:41.439Z,3.05
2022-08-25T02:29:09.034Z,2.78
2022-08-25T02:31:36.391Z,2.60
2022-08-25T02:34:04.351Z,2.88
2022-08-25T02:36:32.177Z,3.22
2022-08-25T02:38:59.569Z,2.58
2022-08-25T02:41:31.028Z,3.15
2022-08-25T02:43:58.973Z,2.75
2022-08-25T02:46:25.800Z,3.03
2022-08-25T02:48:55.349Z,2.65
2022-08-25T02:51:24.426Z,3.65
2022-08-25T02:53:51.341Z,2.97
2022-08-25T02:56:19.148Z,3.10
2022-08-25T02:58:47.036Z,2.80
2022-08-25T03:01:14.973Z,2.83
2022-08-25T03:03:43.462Z,3.08
2022-08-25T03:06:13.188Z,3.28
2022-08-25T03:08:42.171Z,3.00
2022-08-25T03:11:09.764Z,2.95
2022-08-25T03:13:37.283Z,2.70
2022-08-25T03:16:05.976Z,3.45
2022-08-25T03:18:40.267Z,2.80
2022-08-25T03:21:07.517Z,2.83
2022-08-25T03:23:34.630Z,3.05
2022-08-25T03:26:19.758Z,3.30
2022-08-25T03:28:46.293Z,3.08
2022-08-25T03:31:13.476Z,3.40
2022-08-25T03:33:40.316Z,3.47
2022-08-25T03:36:08.679Z,2.95
2022-08-25T03:38:38.380Z,3.20
2022-08-25T03:41:15.606Z,3.47
2022-08-25T03:43:42.629Z,3.10
2022-08-25T03:46:16.941Z,2.90
2022-08-25T03:48:43.570Z,3.20
2022-08-25T03:51:10.174Z,3.42
2022-08-25T03:53:36.810Z,3.40
2022-08-25T03:56:03.590Z,3.30
2022-08-25T03:58:30.151Z,2.92
2022-08-25T04:01:00.514Z,3.75
2022-08-25T04:03:27.289Z,3.28
2022-08-25T04:05:53.903Z,3.35
2022-08-25T04:08:25.835Z,3.05
2022-08-25T04:10:52.444Z,3.20
2022-08-25T04:13:19.610Z,3.13
2022-08-25T04:15:46.258Z,4.05
2022-08-25T04:20:46.578Z,3.00
2022-08-25T04:23:13.487Z,3.05
2022-08-25T04:25:43.980Z,3.20
2022-08-25T04:28:12.859Z,3.05
2022-08-25T04:30:43.391Z,3.38
2022-08-25T04:33:09.975Z,2.88
2022-08-25T04:35:36.569Z,3.70
2022-08-25T04:38:05.095Z,2.95
2022-08-25T04:40:33.586Z,2.83
2022-08-25T04:43:00.297Z,3.03
2022-08-25T04:45:27.023Z,2.80
2022-08-25T04:47:55.137Z,2.80
2022-08-25T04:50:21.856Z,3.00
2022-08-25T04:52:49.433Z,3.30
2022-08-25T04:55:16.227Z,3.30
2022-08-25T04:57:43.394Z,3.50
2022-08-25T05:00:11.629Z,2.95
2022-08-25T05:02:38.162Z,4.50
2022-08-25T05:05:05.122Z,3.28
2022-08-25T05:07:31.794Z,3.65
2022-08-25T05:09:58.570Z,3.13
2022-08-25T05:12:25.259Z,3.30
2022-08-25T05:14:55.623Z,2.95
2022-08-25T05:17:22.586Z,3.92
2022-08-25T05:19:49.252Z,3.40
2022-08-25T05:22:15.887Z,3.13
2022-08-25T05:24:42.407Z,4.13
2022-08-25T05:27:08.972Z,3.67
2022-08-25T05:29:35.699Z,3.03
2022-08-25T05:32:02.474Z,3.22
2022-08-25T05:34:30.259Z,4.03
2022-08-25T05:37:00.114Z,3.83
2022-08-25T05:39:27.091Z,3.67
2022-08-25T05:41:53.705Z,4.03
2022-08-25T05:44:21.314Z,4.05
2022-08-25T05:46:48.250Z,4.45
2022-08-25T05:49:14.781Z,4.55
2022-08-25T05:51:41.309Z,3.85
2022-08-25T05:54:07.970Z,3.95
2022-08-25T05:56:34.613Z,3.85
2022-08-25T05:59:02.451Z,4.05
2022-08-25T06:01:50.267Z,4.00
2022-08-25T06:04:18.132Z,3.90
2022-08-25T06:06:44.841Z,4.05
2022-08-25T06:09:11.873Z,4.68
2022-08-25T06:11:40.374Z,4.65
2022-08-25T06:14:08.863Z,5.00
2022-08-25T06:16:35.593Z,5.00
2022-08-25T06:19:02.281Z,5.40
2022-08-25T06:21:29.358Z,5.00
2022-08-25T06:23:56.012Z,4.88
2022-08-25T06:26:23.508Z,5.43
2022-08-25T06:28:51.272Z,5.10
2022-08-25T06:31:19.659Z,6.80
2022-08-25T06:33:46.459Z,5.90
2022-08-25T06:36:13.058Z,6.35
2022-08-25T06:38:39.698Z,5.63
2022-08-25T06:41:08.038Z,6.20
2022-08-25T06:43:35.083Z,5.88
2022-08-25T06:46:18.713Z,6.35
2022-08-25T06:48:45.402Z,5.50
2022-08-25T06:51:15.186Z,5.15
2022-08-25T06:53:43.496Z,7.03
2022-08-25T06:56:10.969Z,5.65
2022-08-25T06:58:38.669Z,5.93
2022-08-25T07:01:22.267Z,6.32
2022-08-25T07:03:52.629Z,5.88
2022-08-25T07:06:19.882Z,5.32
2022-08-25T07:08:48.962Z,6.55
2022-08-25T07:11:17.589Z,6.93
2022-08-25T07:13:45.539Z,6.85
2022-08-25T07:16:12.596Z,6.15
2022-08-25T07:18:39.287Z,6.70
2022-08-25T07:21:08.781Z,6.75
2022-08-25T07:23:36.632Z,6.13
2022-08-25T07:26:15.747Z,6.00
2022-08-25T07:28:53.751Z,6.50
2022-08-25T07:31:21.581Z,6.95
2022-08-25T07:34:14.849Z,6.65
2022-08-25T07:36:43.446Z,6.38
2022-08-25T07:39:10.610Z,6.45
2022-08-25T07:41:39.507Z,6.40
2022-08-25T07:44:07.698Z,6.13
2022-08-25T07:46:34.364Z,6.68
2022-08-25T07:49:01.002Z,6.93
2022-08-25T07:54:15.062Z,6.03
2022-08-25T07:56:43.147Z,5.88
2022-08-25T07:59:12.598Z,6.43
2022-08-25T08:01:40.239Z,6.45
2022-08-25T08:04:07.581Z,6.45
2022-08-25T08:06:34.275Z,6.40
2022-08-25T08:09:02.713Z,6.53
2022-08-25T08:11:34.608Z,6.15
2022-08-25T08:14:02.236Z,6.57
2022-08-25T08:16:30.607Z,6.13
2022-08-25T08:18:58.505Z,6.45
2022-08-25T08:21:33.029Z,6.25
2022-08-25T08:24:00.734Z,5.97
2022-08-25T08:26:48.097Z,6.38
2022-08-25T08:29:16.435Z,6.07
2022-08-25T08:31:48.571Z,6.57
2022-08-25T08:34:16.377Z,6.10
2022-08-25T08:36:43.312Z,6.43
2022-08-25T08:39:12.003Z,5.57
2022-08-25T08:42:17.205Z,6.38
2022-08-25T08:44:46.555Z,5.53
2022-08-25T08:47:28.240Z,5.90
2022-08-25T08:50:34.803Z,6.13
2022-08-25T08:53:22.829Z,5.82
2022-08-25T08:55:53.802Z,5.32
2022-08-25T08:58:34.245Z,5.82
2022-08-25T09:01:02.294Z,6.93
2022-08-25T09:03:39.732Z,6.38
2022-08-25T09:06:17.714Z,5.25
2022-08-25T09:08:45.167Z,5.32
2022-08-25T09:11:18.997Z,5.30
2022-08-25T09:14:09.499Z,6.25
2022-08-25T09:17:06.118Z,5.88
2022-08-25T09:19:54.405Z,6.30
2022-08-25T09:22:35.665Z,6.07
2022-08-25T09:25:29.587Z,6.32
2022-08-25T09:28:08.685Z,6.35
2022-08-25T09:30:59.805Z,5.93
2022-08-25T09:33:29.040Z,5.10
2022-08-25T09:35:57.324Z,5.68
2022-08-25T09:38:26.340Z,5.72
2022-08-25T09:40:58.931Z,5.95
2022-08-25T09:43:40.360Z,5.72
2022-08-25T09:46:27.097Z,4.93
2022-08-25T09:48:56.687Z,5.20
2022-08-25T09:51:41.590Z,5.78
2022-08-25T09:54:15.738Z,5.35
2022-08-25T09:57:09.275Z,6.07
2022-08-25T09:59:37.577Z,6.10
2022-08-25T10:02:24.373Z,5.30
2022-08-25T10:07:26.793Z,5.30
2022-08-25T10:09:56.866Z,5.53
2022-08-25T10:12:32.189Z,5.03
2022-08-25T10:19:45.009Z,4.47
2022-08-25T10:22:20.452Z,4.45
2022-08-25T10:24:47.360Z,5.47
2022-08-25T10:27:36.754Z,5.15
2022-08-25T10:30:11.125Z,4.47
2022-08-25T10:33:21.296Z,5.30
2022-08-25T10:36:06.689Z,4.90
2022-08-25T10:38:36.655Z,4.55
2022-08-25T10:41:25.040Z,5.53
2022-08-25T10:44:31.172Z,5.10
2022-08-25T10:47:13.473Z,5.10
2022-08-25T10:49:47.522Z,4.57
2022-08-25T10:52:29.134Z,5.15
2022-08-25T10:55:09.114Z,4.88
2022-08-25T10:57:47.313Z,4.38
2022-08-25T11:00:23.732Z,4.43
2022-08-25T11:03:22.970Z,4.30
2022-08-25T11:05:59.206Z,4.70
2022-08-25T11:08:39.924Z,4.63
2022-08-25T11:11:30.910Z,5.03
2022-08-25T11:14:12.289Z,4.72
2022-08-25T11:16:52.698Z,5.15
2022-08-25T11:19:26.999Z,4.72
2022-08-25T11:22:12.554Z,4.88
2022-08-25T11:24:49.515Z,4.97
2022-08-25T11:27:24.379Z,5.15
2022-08-25T11:30:07.038Z,4.32
2022-08-25T11:32:35.699Z,4.65
2022-08-25T11:35:05.595Z,4.47
2022-08-25T11:37:33.192Z,4.80
2022-08-25T11:40:51.908Z,5.05
2022-08-25T11:43:45.977Z,4.57
2022-08-25T11:46:40.390Z,4.93
2022-08-25T11:49:09.626Z,4.35
2022-08-25T11:51:47.795Z,4.47
2022-08-25T11:54:17.633Z,4.80
2022-08-25T11:57:04.947Z,5.20
2022-08-25T11:59:49.724Z,5.07
2022-08-25T12:02:31.198Z,4.43
2022-08-25T12:04:57.992Z,3.95
2022-08-25T12:07:47.374Z,4.22
2022-08-25T12:10:21.803Z,3.78
2022-08-25T12:12:49.307Z,4.85
2022-08-25T12:15:42.847Z,4.93
2022-08-25T12:18:18.722Z,4.30
2022-08-25T12:23:44.990Z,3.38
2022-08-25T12:27:03.349Z,4.03
2022-08-25T12:29:42.774Z,4.10
2022-08-25T12:35:46.513Z,3.67
2022-08-25T12:38:42.582Z,4.63
2022-08-25T12:43:42.396Z,3.55
2022-08-25T12:46:21.580Z,3.78
2022-08-25T12:48:58.544Z,4.40
2022-08-25T12:51:27.865Z,4.70
2022-08-25T12:54:19.042Z,4.03
2022-08-25T12:57:03.132Z,4.00
2022-08-25T12:59:33.070Z,4.40
2022-08-25T13:02:33.590Z,4.15
2022-08-25T13:05:16.815Z,3.67
2022-08-25T13:07:43.293Z,4.30
2022-08-25T13:10:42.413Z,4.43
2022-08-25T13:13:08.982Z,4.53
2022-08-25T13:15:47.023Z,4.03
2022-08-25T13:18:20.023Z,4.22
2022-08-25T13:20:54.902Z,3.92
2022-08-25T13:23:29.204Z,4.53
2022-08-25T13:25:58.322Z,4.07
2022-08-25T13:28:32.113Z,3.88
2022-08-25T13:31:06.208Z,3.78
2022-08-25T13:33:34.146Z,4.20
2022-08-25T13:36:20.666Z,3.90
2022-08-25T13:38:49.140Z,4.00
2022-08-25T13:41:28.744Z,4.00
2022-08-25T13:44:00.861Z,3.92
2022-08-25T13:46:28.785Z,4.10
2022-08-25T13:49:08.932Z,4.13
2022-08-25T13:51:36.548Z,3.22
2022-08-25T13:54:07.202Z,3.92
2022-08-25T13:56:41.576Z,4.05
2022-08-25T13:59:23.079Z,3.35
2022-08-25T14:01:52.313Z,4.05
2022-08-25T14:04:31.993Z,3.85
2022-08-25T14:07:26.951Z,4.10
2022-08-25T14:27:15.512Z,3.78
2022-08-25T14:29:42.124Z,3.70
2022-08-25T14:32:09.950Z,4.18
2022-08-25T14:34:38.636Z,4.50
2022-08-25T14:37:12.460Z,4.20
2022-08-25T14:39:42.422Z,3.65
2022-08-25T14:42:11.758Z,4.10
2022-08-25T14:44:38.479Z,4.30
2022-08-25T14:47:07.307Z,3.95
2022-08-25T14:49:38.262Z,3.60
2022-08-25T14:52:09.792Z,3.97
2022-08-25T14:54:37.723Z,4.30
2022-08-25T14:57:04.479Z,3.75
2022-08-25T14:59:35.102Z,4.22
2022-08-25T15:02:02.278Z,3.72
2022-08-25T15:04:30.130Z,4.03
2022-08-25T15:07:02.797Z,4.38
2022-08-25T15:09:33.661Z,3.83
2022-08-25T15:12:00.847Z,4.45
2022-08-25T15:14:29.073Z,4.22
2022-08-25T15:17:00.960Z,3.90
2022-08-25T15:19:28.503Z,4.47
2022-08-25T15:21:58.129Z,4.32
2022-08-25T15:24:27.655Z,4.05
2022-08-25T15:27:15.222Z,4.47
2022-08-25T15:29:41.787Z,4.63
2022-08-25T15:32:08.826Z,4.45
2022-08-25T15:34:36.678Z,4.35
2022-08-25T15:37:15.206Z,4.20
2022-08-25T15:39:43.535Z,3.97
2022-08-25T15:42:12.335Z,4.05
2022-08-25T15:44:40.219Z,4.88
2022-08-25T15:47:08.453Z,4.10
2022-08-25T15:49:39.545Z,3.95
2022-08-25T15:52:06.368Z,4.20
2022-08-25T15:54:33.287Z,4.55
2022-08-25T15:57:00.272Z,4.35
2022-08-25T15:59:28.148Z,4.20
2022-08-25T16:01:55.221Z,4.13
2022-08-25T16:04:24.621Z,4.20
2022-08-25T16:06:52.061Z,4.30
2022-08-25T16:09:23.091Z,4.38
2022-08-25T16:11:56.168Z,3.80
2022-08-25T16:14:23.792Z,4.88
2022-08-25T16:16:51.632Z,3.88
2022-08-25T16:19:18.324Z,4.20
2022-08-25T16:21:47.458Z,4.25
2022-08-25T16:24:14.725Z,3.78
2022-08-25T16:26:45.134Z,4.20
2022-08-25T16:29:15.660Z,4.40
2022-08-25T16:35:11.770Z,4.00
2022-08-25T16:37:38.369Z,5.05
2022-08-25T16:40:08.074Z,4.25
2022-08-25T16:42:35.009Z,4.20
2022-08-25T16:45:01.657Z,4.70
2022-08-25T16:47:28.286Z,3.97
2022-08-25T16:49:55.118Z,5.05
2022-08-25T16:52:40.687Z,4.40
2022-08-25T16:55:14.250Z,5.05
2022-08-25T16:57:46.035Z,3.90
2022-08-25T17:00:18.217Z,3.33
2022-08-25T17:02:45.754Z,4.25
2022-08-25T17:05:12.538Z,4.57
2022-08-25T17:07:39.297Z,3.88
2022-08-25T17:10:07.190Z,3.92
2022-08-25T17:12:39.647Z,4.30
2022-08-25T17:15:07.556Z,4.18
2022-08-25T17:17:36.152Z,3.70
2022-08-25T17:20:04.654Z,4.13
2022-08-25T17:22:31.571Z,4.05
2022-08-25T17:25:01.067Z,3.70
2022-08-25T17:27:28.199Z,4.25
2022-08-25T17:29:55.881Z,4.05
2022-08-25T17:32:30.259Z,3.47
2022-08-25T17:34:57.433Z,3.80
2022-08-25T17:37:24.620Z,3.65
2022-08-25T17:39:54.396Z,4.13
2022-08-25T17:42:31.281Z,3.38
2022-08-25T17:44:58.138Z,4.28
2022-08-25T17:47:24.785Z,3.95
2022-08-25T17:49:51.444Z,3.65
2022-08-25T17:52:18.755Z,3.85
2022-08-25T17:54:48.586Z,4.40
2022-08-25T17:57:16.217Z,4.03
2022-08-25T17:59:42.920Z,3.90
2022-08-25T18:02:09.684Z,3.80
2022-08-25T18:04:38.019Z,3.80
2022-08-25T18:07:05.834Z,4.20
2022-08-25T18:09:32.509Z,4.47
2022-08-25T18:11:59.282Z,3.53
2022-08-25T18:14:26.746Z,3.90
2022-08-25T18:16:54.112Z,3.92
2022-08-25T18:19:21.053Z,4.03
2022-08-25T18:21:47.920Z,3.90
2022-08-25T18:24:14.665Z,4.32
2022-08-25T18:26:41.884Z,3.75
2022-08-25T18:29:12.525Z,3.50
2022-08-25T18:31:41.636Z,4.05
2022-08-25T18:34:11.139Z,3.83
2022-08-25T18:36:38.850Z,3.67
2022-08-25T18:39:25.607Z,4.22
2022-08-25T18:41:52.499Z,3.90
2022-08-25T18:44:19.121Z,3.65
2022-08-25T18:46:46.249Z,4.00
2022-08-25T18:49:15.839Z,4.00
2022-08-25T18:51:44.714Z,4.05
2022-08-25T18:54:22.834Z,3.80
2022-08-25T18:56:51.379Z,3.63
2022-08-25T18:59:19.176Z,3.75
2022-08-25T19:01:46.370Z,3.78
2022-08-25T19:04:15.088Z,3.70
2022-08-25T19:06:43.986Z,3.58
2022-08-25T19:09:11.443Z,4.15
2022-08-25T19:11:38.198Z,4.07
2022-08-25T19:14:12.065Z,4.22
2022-08-25T19:16:41.362Z,4.00
2022-08-25T19:19:11.628Z,4.50
2022-08-25T19:21:38.871Z,3.95
2022-08-25T19:24:08.351Z,3.75
2022-08-25T19:26:36.096Z,4.00
2022-08-25T19:29:08.900Z,4.05
2022-08-25T19:31:36.523Z,3.65
2022-08-25T19:34:03.952Z,3.95
2022-08-25T19:36:31.358Z,3.90
2022-08-25T19:39:00.639Z,4.20
2022-08-25T19:41:29.722Z,4.15
2022-08-25T19:43:57.588Z,4.10
2022-08-25T19:46:35.560Z,3.70
2022-08-25T19:49:09.237Z,3.75
2022-08-25T19:51:44.116Z,4.20
2022-08-25T19:54:14.188Z,4.28
2022-08-25T19:56:43.865Z,3.13
2022-08-25T19:59:34.334Z,4.10
2022-08-25T20:02:12.639Z,3.58
2022-08-25T20:04:42.593Z,3.97
2022-08-25T20:07:16.978Z,5.18
2022-08-25T20:09:45.086Z,4.43
2022-08-25T20:12:12.096Z,4.03
2022-08-25T20:14:39.558Z,4.38
2022-08-25T20:17:14.713Z,4.05
2022-08-25T20:19:52.443Z,4.38
2022-08-25T20:22:19.989Z,4.35
2022-08-25T20:24:56.143Z,4.50
2022-08-25T20:27:30.578Z,4.13
2022-08-25T20:29:58.090Z,4.57
2022-08-25T20:32:25.020Z,4.22
2022-08-25T20:34:53.522Z,4.78
2022-08-25T20:37:22.555Z,5.05
2022-08-25T20:39:49.414Z,4.68
2022-08-25T20:42:16.395Z,4.97
2022-08-25T20:44:42.961Z,4.57
2022-08-25T20:47:10.808Z,4.85
2022-08-25T20:49:39.587Z,4.60
2022-08-25T20:52:07.732Z,4.45
2022-08-25T20:54:34.865Z,5.13
2022-08-25T20:57:02.577Z,4.30
2022-08-25T20:59:29.783Z,5.22
2022-08-25T21:01:56.854Z,4.55
2022-08-25T21:04:26.292Z,4.45
2022-08-25T21:06:53.221Z,4.68
2022-08-25T21:09:23.064Z,4.07
2022-08-25T21:11:55.972Z,5.15
2022-08-25T21:14:24.108Z,5.03
2022-08-25T21:16:50.980Z,4.80
2022-08-25T21:19:26.676Z,4.88
2022-08-25T21:22:00.030Z,4.80
2022-08-25T21:24:28.381Z,4.40
2022-08-25T21:26:56.747Z,4.80
2022-08-25T21:29:25.934Z,4.93
2022-08-25T21:31:55.667Z,4.95
2022-08-25T21:34:22.298Z,4.80
2022-08-25T21:36:49.101Z,4.82
2022-08-25T21:39:15.754Z,4.78
2022-08-25T21:41:44.561Z,4.82
2022-08-25T21:44:13.167Z,5.13
2022-08-25T21:46:41.241Z,5.20
2022-08-25T21:49:08.795Z,4.85
2022-08-25T21:51:42.667Z,5.28
2022-08-25T21:54:16.040Z,5.18
2022-08-25T21:56:54.063Z,5.10
2022-08-25T21:59:32.072Z,5.18
2022-08-25T22:02:05.042Z,5.07
2022-08-25T22:04:32.409Z,5.60
2022-08-25T22:06:59.313Z,5.18
2022-08-25T22:09:26.640Z,5.93
2022-08-25T22:11:55.685Z,5.07
2022-08-25T22:14:23.722Z,5.53
2022-08-25T22:16:50.642Z,5.75
2022-08-25T22:19:17.498Z,5.82
2022-08-25T22:21:45.038Z,5.32
2022-08-25T22:24:12.013Z,5.63
2022-08-25T22:26:39.664Z,5.07
2022-08-25T22:29:06.550Z,4.97
2022-08-25T22:31:33.812Z,5.18
2022-08-25T22:34:00.650Z,5.63
2022-08-25T22:36:35.504Z,4.38
2022-08-25T22:39:04.373Z,4.22
2022-08-25T22:41:31.627Z,4.63
2022-08-25T22:44:00.510Z,4.75
2022-08-25T22:46:32.540Z,4.97
2022-08-25T22:48:59.960Z,5.45
2022-08-25T22:51:31.576Z,5.30
2022-08-25T22:53:59.519Z,5.43
2022-08-25T22:56:32.681Z,5.07
2022-08-25T22:59:02.877Z,5.28
2022-08-25T23:01:31.965Z,4.80
2022-08-25T23:04:00.985Z,4.60
2022-08-25T23:06:29.178Z,5.00
2022-08-25T23:08:56.315Z,4.57
2022-08-25T23:11:24.556Z,4.95
2022-08-25T23:13:55.327Z,5.32
2022-08-25T23:16:22.676Z,4.57
2022-08-25T23:18:49.399Z,4.95
2022-08-25T23:21:35.323Z,5.10
2022-08-25T23:24:08.891Z,5.28
2022-08-25T23:26:38.075Z,4.90
2022-08-25T23:29:18.006Z,5.55
2022-08-25T23:31:47.118Z,5.00
2022-08-25T23:34:16.594Z,4.82
2022-08-25T23:36:43.798Z,5.05
2022-08-25T23:39:11.396Z,4.82
2022-08-25T23:41:38.323Z,5.28
2022-08-25T23:44:05.815Z,5.53
2022-08-25T23:46:35.078Z,5.18
2022-08-25T23:49:03.972Z,4.93
2022-08-25T23:51:37.341Z,5.20
2022-08-25T23:54:09.427Z,4.60
2022-08-25T23:56:44.730Z,5.13
2022-08-25T23:59:18.140Z,4.72
